Time;durP1;ratioP1;P1;durP2;ratioP2;P2;SDS_P1;SDS_P2;PMS_P1;PMS_P2;Temp;Humidity;BMP_temperature;BMP_pressure;BME280_temperature;BME280_humidity;BME280_pressure;Samples;Min_cycle;Max_cycle;Signal;HPM_P1;HPM_P2
2023/10/17 00:00:34;;;;;;;4.28;3.40;;;;;;;-0.45;100.00;93025.44;2082083;28;20029;-81
2023/10/17 00:01:35;;;;;;;4.88;2.88;;;;;;;-0.45;100.00;93034.06;2088188;28;20032;-81
2023/10/17 00:02:36;;;;;;;4.03;3.13;;;;;;;-0.28;100.00;93030.25;2088532;28;20624;-82
2023/10/17 00:03:37;;;;;;;6.78;3.40;;;;;;;-0.42;100.00;93022.88;2081560;28;20174;-80
2023/10/17 00:04:41;;;;;;;4.50;3.15;;;;;;;-0.46;100.00;93023.94;2093694;28;20021;-81
2023/10/17 00:05:42;;;;;;;3.63;3.33;;;;;;;-0.46;100.00;93021.31;2082213;28;20169;-82
2023/10/17 00:06:44;;;;;;;4.18;3.33;;;;;;;-0.46;100.00;93019.44;2089679;28;20021;-81
2023/10/17 00:07:48;;;;;;;4.88;3.15;;;;;;;-0.48;100.00;93016.41;2089800;28;20036;-81
2023/10/17 00:08:51;;;;;;;5.20;3.40;;;;;;;-0.51;100.00;93015.22;2098244;28;20020;-80
2023/10/17 00:09:54;;;;;;;5.30;3.85;;;;;;;-0.45;100.00;93017.56;2088893;28;20027;-81
2023/10/17 00:10:57;;;;;;;4.93;3.67;;;;;;;-0.40;100.00;93019.91;2085420;28;20518;-81
2023/10/17 00:11:58;;;;;;;5.00;3.40;;;;;;;-0.44;100.00;93021.69;2090210;28;20029;-82
2023/10/17 00:13:18;;;;;;;4.97;3.42;;;;;;;-0.38;100.00;93015.06;2085343;28;20084;-82
2023/10/17 00:14:23;;;;;;;4.28;3.70;;;;;;;-0.41;100.00;93019.16;2100456;28;20441;-81
2023/10/17 00:15:27;;;;;;;4.03;3.42;;;;;;;-0.49;100.00;93014.88;2098510;28;20032;-82
2023/10/17 00:16:30;;;;;;;3.63;3.30;;;;;;;-0.47;100.00;93015.28;2098124;28;20058;-81
2023/10/17 00:17:33;;;;;;;3.90;3.35;;;;;;;-0.42;100.00;93019.50;2098407;28;20028;-80
2023/10/17 00:18:34;;;;;;;7.45;3.80;;;;;;;-0.37;100.00;93021.84;2089634;28;20116;-82
2023/10/17 00:19:35;;;;;;;3.63;3.33;;;;;;;-0.24;100.00;93017.19;2081506;28;20029;-81
2023/10/17 00:20:40;;;;;;;4.60;3.88;;;;;;;-0.47;100.00;93022.41;2081155;28;20475;-82
2023/10/17 00:21:41;;;;;;;5.03;3.55;;;;;;;-0.55;100.00;93016.28;2090055;28;20547;-81
2023/10/17 00:22:42;;;;;;;8.13;4.13;;;;;;;-0.57;100.00;93021.09;2081937;28;20108;-81
2023/10/17 00:23:43;;;;;;;6.07;3.40;;;;;;;-0.53;100.00;93017.44;2089577;28;20041;-82
2023/10/17 00:24:46;;;;;;;4.38;3.50;;;;;;;-0.46;100.00;93013.44;2081064;28;20506;-81
2023/10/17 00:25:51;;;;;;;5.93;3.03;;;;;;;-0.37;100.00;93013.97;2082047;28;20057;-81
2023/10/17 00:26:52;;;;;;;6.13;3.80;;;;;;;-0.38;100.00;93017.69;2105217;28;20024;-81
2023/10/17 00:27:54;;;;;;;5.90;4.10;;;;;;;-0.40;100.00;93004.16;2112795;28;20019;-82
2023/10/17 00:28:55;;;;;;;4.45;3.55;;;;;;;-0.49;100.00;93003.63;2089699;28;20043;-82
2023/10/17 00:29:56;;;;;;;4.20;3.80;;;;;;;-0.60;100.00;93011.31;2081075;28;20031;-82
2023/10/17 00:30:57;;;;;;;4.25;3.85;;;;;;;-0.64;100.00;93002.59;2089687;28;20355;-82
2023/10/17 00:31:58;;;;;;;4.72;3.72;;;;;;;-0.60;100.00;93008.69;2089372;28;20029;-82
2023/10/17 00:32:59;;;;;;;3.90;3.42;;;;;;;-0.56;100.00;93010.25;2097363;28;20017;-82
2023/10/17 00:34:00;;;;;;;3.90;3.60;;;;;;;-0.48;100.00;93010.38;2106397;28;20043;-82
2023/10/17 00:35:09;;;;;;;4.32;3.63;;;;;;;-0.58;100.00;93007.22;2105750;28;20098;-81
2023/10/17 00:36:16;;;;;;;4.00;3.55;;;;;;;-0.68;100.00;93001.78;2107202;28;20135;-82
2023/10/17 00:37:19;;;;;;;4.60;4.10;;;;;;;-0.87;100.00;93002.56;2097907;28;20024;-82
2023/10/17 00:38:22;;;;;;;5.40;3.70;;;;;;;-0.89;100.00;93007.38;2093338;28;20028;-84
2023/10/17 00:39:29;;;;;;;4.50;4.05;;;;;;;-0.77;100.00;93010.63;2081432;28;20453;-83
2023/10/17 00:41:52;;;;;;;5.95;4.43;;;;;;;-0.58;100.00;93007.22;2106007;28;20027;-82
2023/10/17 00:42:53;;;;;;;5.03;3.88;;;;;;;-0.55;100.00;93001.28;2097833;28;20032;-81
2023/10/17 00:43:54;;;;;;;6.38;3.88;;;;;;;-0.65;100.00;93007.09;2089501;28;20028;-81
2023/10/17 00:44:55;;;;;;;4.50;3.90;;;;;;;-0.81;100.00;93015.03;2084436;28;20021;-80
2023/10/17 00:45:56;;;;;;;4.07;3.60;;;;;;;-0.72;100.00;93008.84;2089527;28;20082;-81
2023/10/17 00:46:58;;;;;;;4.90;3.97;;;;;;;-0.53;100.00;93011.41;2087743;28;20059;-81
2023/10/17 00:48:02;;;;;;;4.45;3.95;;;;;;;-0.49;100.00;93003.63;2089438;28;20059;-81
2023/10/17 00:49:11;;;;;;;4.65;4.03;;;;;;;-0.49;100.00;93009.63;2081991;28;20110;-81
2023/10/17 00:50:13;;;;;;;4.35;3.60;;;;;;;-0.50;100.00;93008.09;2083334;28;20036;-81
2023/10/17 00:51:19;;;;;;;5.57;4.25;;;;;;;-0.60;100.00;93006.81;2080950;28;20105;-82
2023/10/17 00:52:29;;;;;;;5.60;3.75;;;;;;;-0.72;100.00;93011.47;2077133;28;20327;-82
2023/10/17 00:53:30;;;;;;;4.30;3.75;;;;;;;-0.67;100.00;92998.81;2087417;28;20033;-81
2023/10/17 00:54:32;;;;;;;4.25;3.85;;;;;;;-0.69;100.00;93005.53;2093545;28;20025;-81
2023/10/17 00:55:35;;;;;;;5.28;4.25;;;;;;;-0.63;100.00;93007.50;2089764;28;20116;-80
2023/10/17 00:56:37;;;;;;;4.80;3.70;;;;;;;-0.58;100.00;93003.84;2086255;28;20031;-80
2023/10/17 00:57:39;;;;;;;4.88;4.15;;;;;;;-0.66;100.00;93005.59;2097616;28;20099;-81
2023/10/17 00:58:44;;;;;;;4.68;4.03;;;;;;;-0.54;100.00;93009.91;2095647;28;20107;-81
2023/10/17 00:59:52;;;;;;;4.05;3.67;;;;;;;-0.56;100.00;93010.25;2090284;28;20025;-82
2023/10/17 01:00:54;;;;;;;6.50;3.80;;;;;;;-0.58;100.00;93009.84;2090191;28;20490;-82
2023/10/17 01:01:56;;;;;;;4.60;3.90;;;;;;;-0.59;100.00;93015.44;2089273;28;20025;-82
2023/10/17 01:03:01;;;;;;;3.97;3.58;;;;;;;-0.54;100.00;93015.91;2096944;28;20062;-80
2023/10/17 01:04:03;;;;;;;4.30;3.90;;;;;;;-0.45;100.00;93013.06;2088595;28;20478;-81
2023/10/17 01:05:04;;;;;;;4.47;3.83;;;;;;;-0.38;100.00;93015.06;2077168;28;20076;-79
2023/10/17 01:06:23;;;;;;;4.10;3.70;;;;;;;-0.41;100.00;93013.13;2081034;28;20374;-80
2023/10/17 01:07:31;;;;;;;5.78;4.13;;;;;;;-0.52;100.00;93012.97;2086247;28;20079;-82
2023/10/17 01:08:39;;;;;;;5.00;4.03;;;;;;;-0.53;100.00;93014.84;2090983;28;20024;-80
2023/10/17 01:09:40;;;;;;;4.47;4.07;;;;;;;-0.56;100.00;93012.88;2098524;28;20055;-81
2023/10/17 01:10:41;;;;;;;4.50;4.07;;;;;;;-0.55;100.00;93014.41;2097256;28;20035;-82
2023/10/17 01:11:43;;;;;;;4.47;3.88;;;;;;;-0.57;100.00;93018.47;2091548;28;20351;-81
2023/10/17 01:13:00;;;;;;;4.95;3.95;;;;;;;-0.61;100.00;93013.19;2089463;28;20082;-81
2023/10/17 01:14:01;;;;;;;5.03;4.03;;;;;;;-0.53;100.00;93011.41;2105447;28;20376;-80
2023/10/17 01:15:02;;;;;;;7.25;4.30;;;;;;;-0.61;100.00;93013.19;2105706;28;20368;-82
2023/10/17 01:16:10;;;;;;;4.30;3.90;;;;;;;-0.64;100.00;93011.25;2081959;28;20148;-81
2023/10/17 01:17:14;;;;;;;5.82;4.18;;;;;;;-0.68;100.00;93009.66;2074341;28;20030;-81
2023/10/17 01:18:15;;;;;;;4.88;3.85;;;;;;;-0.68;100.00;93007.03;2081262;28;20460;-81
2023/10/17 01:19:19;;;;;;;5.28;4.05;;;;;;;-0.63;100.00;93007.50;2089200;28;20035;-81
2023/10/17 01:20:22;;;;;;;4.70;4.20;;;;;;;-0.60;100.00;93001.56;2089136;28;20860;-81
2023/10/17 01:21:26;;;;;;;5.80;4.35;;;;;;;-0.69;100.00;93001.03;2090504;28;20116;-80
2023/10/17 01:22:32;;;;;;;6.57;4.68;;;;;;;-0.58;100.00;93009.84;2097391;28;20025;-82
2023/10/17 01:23:33;;;;;;;5.10;4.55;;;;;;;-0.53;100.00;93003.53;2095604;28;20489;-82
2023/10/17 01:24:34;;;;;;;5.45;4.10;;;;;;;-0.55;100.00;93001.28;2088930;28;20028;-80
2023/10/17 01:25:40;;;;;;;5.47;4.25;;;;;;;-0.68;100.00;93002.53;2086607;28;20393;-82
2023/10/17 01:26:44;;;;;;;4.88;4.35;;;;;;;-0.77;100.00;93009.88;2089405;28;20029;-81
2023/10/17 01:27:45;;;;;;;5.70;4.32;;;;;;;-0.82;100.00;93004.91;2090039;28;20043;-81
2023/10/17 01:28:53;;;;;;;5.22;4.68;;;;;;;-0.76;100.00;93006.88;2088991;28;20537;-80
2023/10/17 01:29:54;;;;;;;5.47;4.07;;;;;;;-0.67;100.00;93001.44;2090613;28;20100;-81
2023/10/17 01:30:57;;;;;;;6.05;4.50;;;;;;;-0.66;100.00;92996.94;2097254;28;20032;-82
2023/10/17 01:31:59;;;;;;;4.75;4.20;;;;;;;-0.65;100.00;93006.34;2088891;28;20020;-81
2023/10/17 01:33:01;;;;;;;6.97;4.45;;;;;;;-0.70;100.00;93002.13;2088747;28;20091;-81
2023/10/17 01:34:02;;;;;;;5.45;4.93;;;;;;;-0.64;100.00;92998.13;2082242;28;20410;-81
2023/10/17 01:35:03;;;;;;;5.35;4.30;;;;;;;-0.58;100.00;93001.97;2095514;28;20111;-82
2023/10/17 01:36:07;;;;;;;5.35;3.90;;;;;;;-0.58;100.00;92993.34;2105540;28;20024;-82
2023/10/17 01:37:10;;;;;;;5.20;4.30;;;;;;;-0.72;100.00;92991.22;2097211;28;20485;-81
2023/10/17 01:38:13;;;;;;;5.45;4.18;;;;;;;-0.71;100.00;92987.47;2081091;28;20096;-82
2023/10/17 01:39:14;;;;;;;4.70;4.00;;;;;;;-0.81;100.00;92988.81;2080540;28;20049;-82
2023/10/17 01:40:26;;;;;;;5.95;4.60;;;;;;;-0.83;100.00;92985.03;2080815;28;20568;-80
2023/10/17 01:41:27;;;;;;;6.20;4.15;;;;;;;-0.72;100.00;92985.22;2083744;28;20506;-81
2023/10/17 01:42:29;;;;;;;5.00;4.45;;;;;;;-0.78;100.00;92984.75;2096966;28;20020;-82
2023/10/17 01:43:30;;;;;;;6.22;4.53;;;;;;;-0.74;100.00;92985.56;2094795;28;20436;-81
2023/10/17 01:44:31;;;;;;;4.90;4.35;;;;;;;-0.72;100.00;92983.34;2097386;28;20048;-81
2023/10/17 01:45:37;;;;;;;5.55;4.07;;;;;;;-0.72;100.00;92978.09;2088582;28;20025;-81
2023/10/17 01:46:38;;;;;;;5.05;4.22;;;;;;;-0.80;100.00;92985.06;2089284;28;20033;-81
2023/10/17 01:47:39;;;;;;;5.70;4.47;;;;;;;-0.69;100.00;92977.41;2080787;28;20084;-81
2023/10/17 01:48:59;;;;;;;5.65;4.47;;;;;;;-0.62;100.00;92964.41;2088971;28;20029;-81
2023/10/17 01:50:00;;;;;;;4.38;3.97;;;;;;;-0.61;100.00;92970.44;2086030;28;20687;-81
2023/10/17 01:51:07;;;;;;;5.13;4.45;;;;;;;-0.61;100.00;92965.94;2080955;28;20052;-82
2023/10/17 01:52:08;;;;;;;5.07;4.22;;;;;;;-0.64;100.00;92969.25;2081078;28;20037;-81
2023/10/17 01:53:12;;;;;;;5.25;4.18;;;;;;;-0.60;100.00;92967.44;2080938;28;20021;-81
2023/10/17 01:54:15;;;;;;;6.53;4.82;;;;;;;-0.58;100.00;92959.22;2073594;28;20414;-81
2023/10/17 01:55:16;;;;;;;5.20;4.70;;;;;;;-0.68;100.00;92962.41;2092146;28;20035;-81
2023/10/17 01:56:20;;;;;;;4.88;4.38;;;;;;;-0.66;100.00;92960.97;2105418;28;20476;-81
2023/10/17 01:57:21;;;;;;;4.85;4.00;;;;;;;-0.77;100.00;92963.41;2097356;28;20082;-81
2023/10/17 01:58:22;;;;;;;5.25;4.15;;;;;;;-0.83;100.00;92959.53;2096938;28;20021;-79
2023/10/17 01:59:26;;;;;;;4.78;4.28;;;;;;;-0.77;100.00;92960.00;2088781;28;20548;-81
2023/10/17 02:01:36;;;;;;;4.65;4.18;;;;;;;-0.66;100.00;92954.94;2097891;28;20501;-81
2023/10/17 02:02:37;;;;;;;5.22;4.20;;;;;;;-0.66;100.00;92954.94;2097453;28;20081;-81
2023/10/17 02:03:39;;;;;;;4.43;4.03;;;;;;;-0.78;100.00;92954.00;2076895;28;20037;-81
2023/10/17 02:04:40;;;;;;;4.70;4.20;;;;;;;-0.68;100.00;92950.06;2080885;28;20031;-80
2023/10/17 02:05:41;;;;;;;4.50;4.07;;;;;;;-0.65;100.00;92954.63;2087415;28;20117;-81
2023/10/17 02:06:42;;;;;;;4.20;3.80;;;;;;;-0.58;100.00;92962.59;2080537;28;20076;-82
2023/10/17 02:07:43;;;;;;;4.38;3.63;;;;;;;-0.56;100.00;92957.00;2097182;28;20024;-82
2023/10/17 02:08:44;;;;;;;4.00;3.70;;;;;;;-0.73;100.00;92958.22;2088530;28;20020;-82
2023/10/17 02:09:54;;;;;;;3.90;3.50;;;;;;;-0.74;100.00;92958.56;2088642;28;20025;-81
2023/10/17 02:10:56;;;;;;;4.25;3.85;;;;;;;-0.64;100.00;92958.75;2090013;28;20164;-81
2023/10/17 02:12:00;;;;;;;3.85;3.55;;;;;;;-0.74;100.00;92959.31;2103503;28;20024;-81
2023/10/17 02:13:04;;;;;;;3.90;3.50;;;;;;;-0.69;100.00;92956.41;2097370;28;20027;-81
2023/10/17 02:14:06;;;;;;;3.97;3.67;;;;;;;-0.63;100.00;92955.00;2088799;28;20033;-80
2023/10/17 02:15:08;;;;;;;4.22;3.45;;;;;;;-0.60;100.00;92961.44;2088235;28;20071;-80
2023/10/17 02:16:10;;;;;;;4.40;4.00;;;;;;;-0.76;100.00;92964.16;2080776;28;20025;-81
2023/10/17 02:17:15;;;;;;;4.78;3.85;;;;;;;-0.82;100.00;92965.56;2080517;28;20471;-81
2023/10/17 02:18:16;;;;;;;5.00;3.97;;;;;;;-0.65;100.00;92959.88;2081965;28;20036;-81
2023/10/17 02:19:21;;;;;;;3.67;3.38;;;;;;;-0.80;100.00;92960.69;2097284;28;20025;-81
2023/10/17 02:21:29;;;;;;;3.70;3.40;;;;;;;-0.68;100.00;92965.81;2104624;28;20028;-81
2023/10/17 02:23:49;;;;;;;;;;;;;;;-1.21;100.00;92967.44;2144211;27;20118;-78
2023/10/17 02:24:55;;;;;;;6.97;3.33;;;;;;;-1.29;100.00;92963.91;2121196;28;19912;-79
2023/10/17 02:26:00;;;;;;;4.45;3.67;;;;;;;-1.33;100.00;92960.44;2113314;28;20030;-80
2023/10/17 02:27:08;;;;;;;4.75;3.70;;;;;;;-1.28;100.00;92962.78;2105807;28;20685;-83
2023/10/17 02:28:09;;;;;;;4.88;3.90;;;;;;;-1.33;100.00;92958.59;2112543;28;20628;-82
2023/10/17 02:29:11;;;;;;;4.05;3.65;;;;;;;-1.27;100.00;92965.09;2106339;28;20027;-80
2023/10/17 02:30:13;;;;;;;3.78;3.45;;;;;;;-1.26;100.00;92965.84;2098544;28;20027;-80
2023/10/17 02:31:15;;;;;;;3.60;3.30;;;;;;;-1.03;100.00;92966.66;2104615;28;20020;-81
2023/10/17 02:32:18;;;;;;;4.22;3.83;;;;;;;-1.04;100.00;92959.91;2113066;28;20054;-81
2023/10/17 02:33:20;;;;;;;4.32;3.58;;;;;;;-1.12;100.00;92963.50;2104684;28;20020;-80
2023/10/17 02:34:22;;;;;;;3.90;3.35;;;;;;;-1.17;100.00;92961.16;2104467;28;20024;-80
2023/10/17 02:36:52;;;;;;;3.88;3.47;;;;;;;-1.26;100.00;92957.97;2101082;27;20036;-81
2023/10/17 02:37:56;;;;;;;4.13;3.67;;;;;;;-1.23;100.00;92954.66;2121162;28;20031;-82
2023/10/17 02:38:58;;;;;;;5.63;3.70;;;;;;;-1.22;100.00;92960.69;2121229;27;20024;-82
2023/10/17 02:40:07;;;;;;;4.30;3.85;;;;;;;-1.14;100.00;92959.69;2111904;28;20102;-82
2023/10/17 02:41:09;;;;;;;5.57;3.83;;;;;;;-1.19;100.00;92960.72;2106652;28;20069;-81
2023/10/17 02:42:10;;;;;;;4.53;4.03;;;;;;;-1.23;100.00;92961.75;2117414;27;20070;-82
2023/10/17 02:43:12;;;;;;;4.18;3.85;;;;;;;-1.30;100.00;92965.00;2112564;28;20114;-82
2023/10/17 02:44:18;;;;;;;4.53;3.65;;;;;;;-1.21;100.00;92960.31;2104125;28;20056;-82
2023/10/17 02:45:25;;;;;;;4.18;3.78;;;;;;;-1.18;100.00;92964.13;2108366;28;20023;-82
2023/10/17 02:46:27;;;;;;;4.60;4.20;;;;;;;-1.21;100.00;92960.31;2104899;28;20093;-82
2023/10/17 02:47:28;;;;;;;4.43;4.03;;;;;;;-1.31;100.00;92956.38;2104375;28;20052;-82
2023/10/17 02:48:29;;;;;;;4.60;4.15;;;;;;;-1.36;100.00;92956.66;2097819;28;20016;-81
2023/10/17 02:49:37;;;;;;;5.00;4.25;;;;;;;-1.32;100.00;92960.13;2112653;28;20030;-81
2023/10/17 02:51:43;;;;;;;4.07;3.70;;;;;;;-1.22;100.00;92965.91;2120890;27;20047;-82
2023/10/17 02:52:51;;;;;;;6.47;4.47;;;;;;;-1.34;100.00;92964.94;2129757;27;20079;-81
2023/10/17 02:53:55;;;;;;;5.57;4.43;;;;;;;-1.39;100.00;92959.22;2113017;28;20023;-80
2023/10/17 02:54:57;;;;;;;4.00;3.63;;;;;;;-1.30;100.00;92973.63;2105035;28;20028;-81
2023/10/17 02:55:58;;;;;;;4.70;3.70;;;;;;;-1.27;100.00;92957.22;2104430;28;20020;-83
2023/10/17 02:56:59;;;;;;;3.92;3.58;;;;;;;-1.32;100.00;92962.75;2112065;28;20043;-81
2023/10/17 02:58:00;;;;;;;4.45;4.03;;;;;;;-1.32;100.00;92957.50;2104293;28;20016;-82
2023/10/17 02:59:07;;;;;;;4.35;3.75;;;;;;;-1.31;100.00;92961.63;2112307;28;20019;-83
2023/10/17 03:00:21;;;;;;;5.25;4.13;;;;;;;-1.30;100.00;92962.38;2104953;28;20024;-82
2023/10/17 03:01:22;;;;;;;4.35;3.85;;;;;;;-1.40;100.00;92965.56;2107872;28;20156;-82
2023/10/17 03:02:30;;;;;;;5.90;4.15;;;;;;;-1.35;100.00;92965.28;2112395;27;20024;-82
2023/10/17 03:03:34;;;;;;;6.38;4.03;;;;;;;-1.33;100.00;92958.59;2120512;27;20417;-82
2023/10/17 03:04:36;;;;;;;3.90;3.60;;;;;;;-1.44;100.00;92962.09;2104456;28;20073;-81
2023/10/17 03:05:41;;;;;;;4.57;3.90;;;;;;;-1.33;100.00;92955.19;2099609;28;20032;-81
2023/10/17 03:06:44;;;;;;;4.57;4.15;;;;;;;-1.25;100.00;92958.72;2113601;27;20065;-79
2023/10/17 03:07:49;;;;;;;4.10;3.70;;;;;;;-1.23;100.00;92954.66;2120238;28;20045;-80
2023/10/17 03:09:00;;;;;;;4.90;3.97;;;;;;;-1.30;100.00;92960.53;2105886;28;20051;-80
2023/10/17 03:10:02;;;;;;;4.13;3.72;;;;;;;-1.27;100.00;92959.09;2121168;27;20047;-82
2023/10/17 03:11:15;;;;;;;3.90;3.50;;;;;;;-1.22;100.00;92963.28;2120812;27;20020;-82
2023/10/17 03:12:22;;;;;;;4.75;3.88;;;;;;;-1.21;100.00;92954.31;2124982;27;20379;-81
2023/10/17 03:13:23;;;;;;;4.18;3.78;;;;;;;-1.22;100.00;92958.06;2129397;27;20030;-82
2023/10/17 03:15:40;;;;;;;4.20;3.83;;;;;;;-1.16;100.00;92948.78;2118496;27;20091;-82
2023/10/17 03:16:43;;;;;;;4.20;3.60;;;;;;;-1.10;100.00;92950.03;2129425;27;20026;-82
2023/10/17 03:17:44;;;;;;;4.47;4.00;;;;;;;-1.08;100.00;92953.81;2115234;28;20499;-81
2023/10/17 03:18:49;;;;;;;4.22;3.83;;;;;;;-1.12;100.00;92954.88;2112142;28;20047;-79
2023/10/17 03:19:51;;;;;;;3.97;3.58;;;;;;;-1.15;100.00;92945.81;2112092;28;20030;-80
2023/10/17 03:20:52;;;;;;;4.43;4.03;;;;;;;-1.27;100.00;92951.97;2103326;28;20024;-81
2023/10/17 03:21:54;;;;;;;4.25;3.85;;;;;;;-1.19;100.00;92947.59;2095722;28;20051;-82
2023/10/17 03:22:55;;;;;;;6.43;4.50;;;;;;;-1.32;100.00;92946.22;2095068;28;20032;-82
2023/10/17 03:24:00;;;;;;;3.92;3.35;;;;;;;-1.29;100.00;92953.41;2102886;28;20032;-81
2023/10/17 03:25:24;;;;;;;4.65;3.80;;;;;;;-1.31;100.00;92955.63;2112775;28;20116;-81
2023/10/17 03:26:22;;;;;;;3.97;3.40;;;;;;;-1.32;100.00;92948.84;2110306;28;20556;-79
2023/10/17 03:27:48;;;;;;;3.55;3.25;;;;;;;-1.17;100.00;92952.53;2106453;28;20031;-79
2023/10/17 03:28:50;;;;;;;4.25;3.60;;;;;;;-1.11;100.00;92949.28;2098956;28;20078;-82
2023/10/17 03:29:51;;;;;;;4.18;3.78;;;;;;;-1.17;100.00;92953.28;2098717;28;20101;-82
2023/10/17 03:30:52;;;;;;;4.03;3.65;;;;;;;-1.24;100.00;92955.00;2107426;28;20074;-82
2023/10/17 03:31:58;;;;;;;4.32;3.45;;;;;;;-1.24;100.00;92952.38;2095169;28;20215;-82
2023/10/17 03:34:04;;;;;;;4.05;3.65;;;;;;;-1.29;100.00;92956.03;2103522;28;20607;-83
2023/10/17 03:35:07;;;;;;;4.00;3.60;;;;;;;-1.22;100.00;92950.19;2098402;28;20023;-82
2023/10/17 03:36:39;;;;;;;5.30;4.10;;;;;;;-1.27;100.00;92951.22;2098698;28;20501;-81
2023/10/17 03:37:29;;;;;;;4.38;3.97;;;;;;;-1.23;100.00;92952.03;2102900;28;20477;-83
2023/10/17 03:38:33;;;;;;;4.07;3.65;;;;;;;-1.28;100.00;92957.53;2099823;28;20080;-82
2023/10/17 03:39:50;;;;;;;4.78;3.80;;;;;;;-1.29;100.00;92959.41;2106060;28;20035;-82
2023/10/17 03:40:53;;;;;;;3.78;3.45;;;;;;;-1.23;100.00;92954.66;2099928;28;20482;-81
2023/10/17 03:41:57;;;;;;;3.92;3.53;;;;;;;-1.24;100.00;92955.00;2098638;28;20441;-82
2023/10/17 03:43:04;;;;;;;4.55;4.15;;;;;;;-1.22;100.00;92956.19;2106005;28;20039;-81
2023/10/17 03:44:05;;;;;;;3.58;3.28;;;;;;;-1.26;100.00;92952.72;2104590;28;20035;-82
2023/10/17 03:45:13;;;;;;;4.10;3.75;;;;;;;-1.23;100.00;92951.28;2106304;28;20097;-81
2023/10/17 03:46:15;;;;;;;4.13;3.72;;;;;;;-1.16;100.00;92949.56;2091394;28;20025;-82
2023/10/17 03:47:17;;;;;;;4.05;3.40;;;;;;;-1.22;100.00;92955.44;2098210;28;20044;-81
2023/10/17 03:48:20;;;;;;;3.80;3.47;;;;;;;-1.22;100.00;92950.19;2089758;28;20028;-83
2023/10/17 03:49:22;;;;;;;4.45;4.03;;;;;;;-1.23;100.00;92949.41;2095096;28;20637;-82
2023/10/17 03:50:43;;;;;;;4.50;4.10;;;;;;;-1.15;100.00;92950.31;2106044;28;20470;-80
2023/10/17 03:51:47;;;;;;;4.32;3.40;;;;;;;-1.21;100.00;92949.06;2107488;28;20601;-82
2023/10/17 03:52:48;;;;;;;4.07;3.45;;;;;;;-1.17;100.00;92953.28;2106214;28;20123;-81
2023/10/17 03:53:49;;;;;;;4.40;4.00;;;;;;;-1.15;100.00;92951.06;2106068;28;20020;-82
2023/10/17 03:54:50;;;;;;;4.47;3.38;;;;;;;-1.15;100.00;92952.94;2106136;28;20016;-81
2023/10/17 03:55:51;;;;;;;4.07;3.50;;;;;;;-1.22;100.00;92950.94;2097590;28;20020;-82
2023/10/17 03:57:04;;;;;;;4.22;3.60;;;;;;;-1.25;100.00;92953.50;2098365;28;20025;-83
2023/10/17 03:58:18;;;;;;;4.13;3.63;;;;;;;-1.13;100.00;92954.13;2099595;28;20377;-82
2023/10/17 03:59:31;;;;;;;3.80;3.08;;;;;;;-1.08;100.00;92953.06;2104510;28;20115;-82
2023/10/17 04:00:41;;;;;;;3.92;3.50;;;;;;;-1.12;100.00;92944.38;2105227;27;20022;-81
2023/10/17 04:01:48;;;;;;;4.03;3.63;;;;;;;-1.11;100.00;92948.50;2094710;28;20031;-80
2023/10/17 04:02:49;;;;;;;4.40;3.42;;;;;;;-1.17;100.00;92945.41;2089775;28;20512;-80
2023/10/17 04:03:54;;;;;;;4.03;3.63;;;;;;;-1.13;100.00;92941.00;2098987;28;20033;-80
2023/10/17 04:04:55;;;;;;;3.78;3.35;;;;;;;-1.07;100.00;92949.34;2114339;28;20028;-82
2023/10/17 04:07:14;;;;;;;4.20;3.45;;;;;;;-1.15;100.00;92952.94;2108039;28;20028;-81
2023/10/17 04:08:17;;;;;;;4.95;3.47;;;;;;;-1.17;100.00;92940.16;2112929;28;20068;-82
2023/10/17 04:09:26;;;;;;;4.15;3.75;;;;;;;-1.23;100.00;92944.16;2101454;28;20439;-82
2023/10/17 04:10:22;;;;;;;3.85;3.55;;;;;;;-1.36;100.00;92937.53;2106533;28;20031;-82
2023/10/17 04:12:48;;;;;;;3.95;3.55;;;;;;;-1.31;100.00;92947.78;2097807;28;20091;-82
2023/10/17 04:13:54;;;;;;;3.80;3.42;;;;;;;-1.23;100.00;92944.16;2092797;28;20501;-83
2023/10/17 04:14:59;;;;;;;4.95;3.97;;;;;;;-1.20;100.00;92940.84;2098117;28;20736;-82
2023/10/17 04:16:14;;;;;;;5.30;4.07;;;;;;;-1.22;100.00;92948.31;2106469;28;20028;-79
2023/10/17 04:17:16;;;;;;;4.72;3.88;;;;;;;-1.15;100.00;92947.69;2106110;28;20024;-81
2023/10/17 04:18:17;;;;;;;4.25;3.70;;;;;;;-1.18;100.00;92946.53;2097891;28;20027;-81
2023/10/17 04:19:20;;;;;;;5.10;3.92;;;;;;;-1.23;100.00;92946.78;2088130;28;20021;-80
2023/10/17 04:20:22;;;;;;;4.50;4.10;;;;;;;-1.25;100.00;92937.75;2091361;28;20106;-83
2023/10/17 04:22:49;;;;;;;4.22;3.83;;;;;;;-1.38;100.00;92940.50;2077193;28;20076;-83
2023/10/17 04:23:50;;;;;;;4.40;4.00;;;;;;;-1.26;100.00;92942.25;2097577;28;20468;-83
2023/10/17 04:24:51;;;;;;;4.53;4.03;;;;;;;-1.23;100.00;92936.28;2105740;28;20020;-81
2023/10/17 04:25:55;;;;;;;4.72;4.28;;;;;;;-1.24;100.00;92937.41;2105708;28;20027;-82
2023/10/17 04:27:06;;;;;;;5.47;4.88;;;;;;;-1.25;100.00;92940.38;2106640;28;20440;-82
2023/10/17 04:28:07;;;;;;;5.32;4.72;;;;;;;-1.24;100.00;92945.28;2108979;28;20028;-79
2023/10/17 04:29:11;;;;;;;5.60;5.00;;;;;;;-1.16;100.00;92935.69;2089770;28;20346;-83
2023/10/17 04:30:22;;;;;;;6.20;5.30;;;;;;;-1.14;100.00;92936.88;2090404;28;20343;-81
2023/10/17 04:31:26;;;;;;;5.65;4.10;;;;;;;-1.16;100.00;92944.31;2098774;28;20017;-82
2023/10/17 04:32:28;;;;;;;5.43;4.57;;;;;;;-1.16;100.00;92951.41;2098254;28;20031;-82
2023/10/17 04:33:30;;;;;;;5.65;4.88;;;;;;;-1.05;100.00;92940.03;2089977;28;20055;-82
2023/10/17 04:34:33;;;;;;;5.85;4.57;;;;;;;-0.98;100.00;92954.38;2095769;28;20036;-82
2023/10/17 04:35:46;;;;;;;4.72;4.30;;;;;;;-1.08;100.00;92959.06;2090461;28;20493;-82
2023/10/17 04:36:52;;;;;;;5.13;4.53;;;;;;;-1.08;100.00;92947.81;2090685;28;20025;-82
2023/10/17 04:38:19;;;;;;;5.15;4.65;;;;;;;-1.09;100.00;92949.69;2095060;28;20028;-82
2023/10/17 04:40:37;;;;;;;7.03;5.55;;;;;;;-1.19;100.00;92949.47;2090221;28;20021;-82
2023/10/17 04:45:03;;;;;;;4.85;4.10;;;;;;;-1.14;100.00;92946.56;2109616;28;19918;-81
2023/10/17 04:46:08;;;;;;;;;;;;;;;-1.15;100.00;92937.94;2111695;28;20027;-82
2023/10/17 04:48:32;;;;;;;4.68;4.22;;;;;;;-1.02;100.00;92938.56;2095443;28;20028;-82
2023/10/17 04:49:35;;;;;;;4.18;3.83;;;;;;;-1.00;100.00;92944.25;2097515;28;20020;-81
2023/10/17 04:50:45;;;;;;;4.78;4.32;;;;;;;-0.96;100.00;92941.69;2090047;28;20025;-82
2023/10/17 04:51:51;;;;;;;6.00;4.90;;;;;;;-0.85;100.00;92937.38;2096995;28;20469;-82
2023/10/17 04:52:57;;;;;;;4.75;4.32;;;;;;;-1.03;100.00;92942.31;2101879;27;21754;-82
2023/10/17 04:54:09;;;;;;;4.60;4.20;;;;;;;-0.92;100.00;92937.25;2101663;28;20050;-82
2023/10/17 04:55:30;;;;;;;5.43;4.40;;;;;;;-1.04;100.00;92944.16;2101029;27;20136;-82
2023/10/17 04:56:52;;;;;;;4.38;3.97;;;;;;;-0.96;100.00;92939.81;2099541;28;20733;-82
2023/10/17 04:57:58;;;;;;;5.90;5.20;;;;;;;-1.06;100.00;92938.50;2099518;28;20783;-80
2023/10/17 04:59:02;;;;;;;5.20;4.13;;;;;;;-1.13;100.00;92933.13;2095258;28;20788;-82
2023/10/17 05:02:35;;;;;;;5.72;3.80;;;;;;;-1.09;100.00;92939.22;2070583;28;20252;-82
2023/10/17 05:08:11;;;;;;;4.57;3.90;;;;;;;-1.23;100.00;92925.81;2105129;28;20154;-82
2023/10/17 06:16:49;;;;;;;5.07;4.07;;;;;;;-1.11;100.00;92932.78;2106173;28;20696;-81
2023/10/17 06:17:22;;;;;;;6.13;4.83;;;;;;;-0.91;100.00;92929.03;2107555;27;20080;-82
2023/10/17 06:18:26;;;;;;;6.72;4.88;;;;;;;-0.79;100.00;92934.13;2110751;28;20433;-83
2023/10/17 06:19:32;;;;;;;7.15;6.00;;;;;;;-0.76;100.00;92937.91;2105032;28;20412;-82
2023/10/17 06:28:27;;;;;;;9.65;5.63;;;;;;;-0.72;100.00;92933.47;2103472;28;20468;-83
2023/10/17 06:30:45;;;;;;;6.63;5.88;;;;;;;-0.62;100.00;92938.16;2096318;28;20036;-83
2023/10/17 06:33:02;;;;;;;6.03;5.25;;;;;;;-0.53;100.00;92933.44;2088804;28;20025;-82
2023/10/17 06:34:03;;;;;;;7.03;5.53;;;;;;;-0.56;100.00;92943.88;2097145;28;20031;-82
2023/10/17 06:35:20;;;;;;;5.82;5.22;;;;;;;-0.57;100.00;92937.88;2087649;28;20044;-81
2023/10/17 06:36:30;;;;;;;8.18;5.47;;;;;;;-0.42;100.00;92943.38;2092445;28;20025;-82
2023/10/17 06:37:32;;;;;;;6.40;5.75;;;;;;;-0.33;100.00;92943.88;2096666;28;20067;-82
2023/10/17 06:38:45;;;;;;;7.30;5.90;;;;;;;-0.49;100.00;92938.75;2096778;28;20511;-82
2023/10/17 06:39:49;;;;;;;8.20;6.28;;;;;;;-0.38;100.00;92944.19;2095915;28;20059;-82
2023/10/17 06:40:53;;;;;;;6.90;5.35;;;;;;;-0.38;100.00;92944.94;2102981;28;20022;-82
2023/10/17 06:42:13;;;;;;;6.22;5.63;;;;;;;-0.43;100.00;92954.97;2115147;28;20025;-82
2023/10/17 06:43:27;;;;;;;6.85;5.95;;;;;;;-0.33;100.00;92938.63;2095445;28;20056;-83
2023/10/17 06:44:30;;;;;;;7.18;6.00;;;;;;;-0.34;100.00;92937.13;2088508;28;20029;-83